createdAt,value
2023-02-13T00:01:06.626Z,3.70
2023-02-13T00:03:36.057Z,3.70
2023-02-13T00:06:04.176Z,3.70
2023-02-13T00:08:32.216Z,3.60
2023-02-13T00:11:00.361Z,3.60
2023-02-13T00:13:28.512Z,3.60
2023-02-13T00:15:58.103Z,3.60
2023-02-13T00:18:26.257Z,3.50
2023-02-13T00:21:04.236Z,3.50
2023-02-13T00:23:33.663Z,3.50
2023-02-13T00:26:05.832Z,3.50
2023-02-13T00:28:33.959Z,3.50
2023-02-13T00:31:07.092Z,3.50
2023-02-13T00:33:35.783Z,3.40
2023-02-13T00:36:07.919Z,3.40
2023-02-13T00:38:36.668Z,3.40
2023-02-13T00:41:04.994Z,3.40
2023-02-13T00:43:33.890Z,3.40
2023-02-13T00:46:02.171Z,3.40
2023-02-13T00:48:32.238Z,3.40
2023-02-13T00:51:00.534Z,3.40
2023-02-13T00:53:30.073Z,3.30
2023-02-13T00:55:58.473Z,3.40
2023-02-13T00:58:27.032Z,3.40
2023-02-13T01:00:56.545Z,3.30
2023-02-13T01:03:25.098Z,3.30
2023-02-13T01:05:53.508Z,3.30
2023-02-13T01:08:21.733Z,3.20
2023-02-13T01:10:51.613Z,3.20
2023-02-13T01:13:19.878Z,3.20
2023-02-13T01:15:48.897Z,3.20
2023-02-13T01:18:18.767Z,3.20
2023-02-13T01:20:56.486Z,3.20
2023-02-13T01:23:24.729Z,3.20
2023-02-13T01:25:54.203Z,3.20
2023-02-13T01:28:22.280Z,3.20
2023-02-13T01:30:55.308Z,3.20
2023-02-13T01:33:23.811Z,3.20
2023-02-13T01:35:52.547Z,3.30
2023-02-13T01:38:20.795Z,3.30
2023-02-13T01:40:49.806Z,3.30
2023-02-13T01:43:19.869Z,3.30
2023-02-13T01:45:51.381Z,3.30
2023-02-13T01:48:22.312Z,3.30
2023-02-13T01:50:53.351Z,3.30
2023-02-13T01:53:28.366Z,3.30
2023-02-13T01:55:59.726Z,3.30
2023-02-13T01:58:33.664Z,3.30
2023-02-13T02:01:03.100Z,3.30
2023-02-13T02:03:36.310Z,3.30
2023-02-13T02:06:06.090Z,3.30
2023-02-13T02:08:36.372Z,3.30
2023-02-13T02:11:11.694Z,3.30
2023-02-13T02:13:41.456Z,3.30
2023-02-13T02:16:09.661Z,3.30
2023-02-13T02:18:37.751Z,3.30
2023-02-13T02:21:43.665Z,3.30
2023-02-13T02:24:29.926Z,3.30
2023-02-13T02:27:36.923Z,3.30
2023-02-13T02:30:38.107Z,3.20
2023-02-13T02:33:19.776Z,3.20
2023-02-13T02:36:01.173Z,3.20
2023-02-13T02:38:42.585Z,3.20
2023-02-13T02:41:36.215Z,3.20
2023-02-13T02:44:17.482Z,3.20
2023-02-13T02:47:11.949Z,3.20
2023-02-13T02:49:59.751Z,3.20
2023-02-13T02:52:41.721Z,3.20
2023-02-13T02:55:18.376Z,3.20
2023-02-13T02:58:08.704Z,3.20
2023-02-13T03:00:58.346Z,3.20
2023-02-13T03:03:45.835Z,3.20
2023-02-13T03:06:19.958Z,3.20
2023-02-13T03:09:11.270Z,3.20
2023-02-13T03:11:57.912Z,3.30
2023-02-13T03:14:28.564Z,3.30
2023-02-13T03:17:16.623Z,3.30
2023-02-13T03:20:13.741Z,3.20
2023-02-13T03:22:54.271Z,3.30
2023-02-13T03:25:34.330Z,3.20
2023-02-13T03:28:30.298Z,3.30
2023-02-13T03:31:05.099Z,3.30
2023-02-13T03:33:57.139Z,3.30
2023-02-13T03:36:52.346Z,3.30
2023-02-13T03:39:25.130Z,3.30
2023-02-13T03:41:59.020Z,3.30
2023-02-13T03:44:31.446Z,3.30
2023-02-13T03:47:02.576Z,3.30
2023-02-13T03:49:52.068Z,3.30
2023-02-13T03:52:25.835Z,3.20
2023-02-13T03:55:15.833Z,3.20
2023-02-13T03:58:03.219Z,3.30
2023-02-13T04:00:40.702Z,3.20
2023-02-13T04:03:15.423Z,3.30
2023-02-13T04:05:48.195Z,3.30
2023-02-13T04:08:16.592Z,3.30
2023-02-13T04:10:53.302Z,3.30
2023-02-13T04:13:29.107Z,3.30
2023-02-13T04:16:02.538Z,3.40
2023-02-13T04:18:32.965Z,3.40
2023-02-13T04:21:03.954Z,3.40
2023-02-13T04:23:31.995Z,3.40
2023-02-13T04:26:03.504Z,3.40
2023-02-13T04:28:31.627Z,3.40
2023-02-13T04:31:00.344Z,3.40
2023-02-13T04:33:28.669Z,3.40
2023-02-13T04:35:56.897Z,3.40
2023-02-13T04:38:25.110Z,3.40
2023-02-13T04:40:53.153Z,3.40
2023-02-13T04:43:22.921Z,3.40
2023-02-13T04:45:51.327Z,3.40
2023-02-13T04:48:19.488Z,3.40
2023-02-13T04:50:48.026Z,3.40
2023-02-13T04:53:16.085Z,3.40
2023-02-13T04:55:44.394Z,3.40
2023-02-13T04:58:12.540Z,3.30
2023-02-13T05:00:42.118Z,3.40
2023-02-13T05:03:12.532Z,3.30
2023-02-13T05:05:41.232Z,3.30
2023-02-13T05:08:10.200Z,3.30
2023-02-13T05:10:38.630Z,3.30
2023-02-13T05:13:06.859Z,3.30
2023-02-13T05:15:35.127Z,3.30
2023-02-13T05:18:04.662Z,3.30
2023-02-13T05:20:32.759Z,3.30
2023-02-13T05:23:18.072Z,3.30
2023-02-13T05:25:46.163Z,3.20
2023-02-13T05:28:28.156Z,3.20
2023-02-13T05:30:56.665Z,3.20
2023-02-13T05:33:26.526Z,3.20
2023-02-13T05:35:54.667Z,3.20
2023-02-13T05:38:22.680Z,3.20
2023-02-13T05:40:50.736Z,3.20
2023-02-13T05:43:18.783Z,3.20
2023-02-13T05:45:46.908Z,3.20
2023-02-13T05:48:14.985Z,3.20
2023-02-13T05:50:44.532Z,3.20
2023-02-13T05:53:12.562Z,3.20
2023-02-13T05:55:40.961Z,3.20
2023-02-13T05:58:09.531Z,3.20
2023-02-13T06:00:37.651Z,3.20
2023-02-13T06:03:05.784Z,3.20
2023-02-13T06:05:33.878Z,3.20
2023-02-13T06:08:03.339Z,3.20
2023-02-13T06:10:31.513Z,3.10
2023-02-13T06:12:59.566Z,3.20
2023-02-13T06:15:27.659Z,3.10
2023-02-13T06:17:55.763Z,3.10
2023-02-13T06:20:24.202Z,3.10
2023-02-13T06:22:52.591Z,3.10
2023-02-13T06:25:22.472Z,3.10
2023-02-13T06:27:50.604Z,3.20
2023-02-13T06:30:19.920Z,3.20
2023-02-13T06:32:49.109Z,3.20
2023-02-13T06:35:17.460Z,3.20
2023-02-13T06:37:45.924Z,3.20
2023-02-13T06:40:15.733Z,3.20
2023-02-13T06:42:46.000Z,3.30
2023-02-13T06:45:14.488Z,3.30
2023-02-13T06:47:43.670Z,3.30
2023-02-13T06:50:13.692Z,3.30
2023-02-13T06:52:46.265Z,3.40
2023-02-13T06:55:14.559Z,3.40
2023-02-13T06:57:44.452Z,3.40
2023-02-13T07:00:15.032Z,3.40
2023-02-13T07:02:43.935Z,3.50
2023-02-13T07:07:42.833Z,3.50
2023-02-13T07:10:13.524Z,3.50
2023-02-13T07:12:41.620Z,3.50
2023-02-13T07:15:11.750Z,3.60
2023-02-13T07:17:39.777Z,3.60
2023-02-13T07:20:10.434Z,3.60
2023-02-13T07:22:38.558Z,3.60
2023-02-13T07:25:07.193Z,3.70
2023-02-13T07:27:35.322Z,3.80
2023-02-13T07:30:03.392Z,3.90
2023-02-13T07:32:32.832Z,4.00
2023-02-13T07:35:02.322Z,4.10
2023-02-13T07:37:31.189Z,4.20
2023-02-13T07:39:59.360Z,4.20
2023-02-13T07:42:27.562Z,4.30
2023-02-13T07:44:55.658Z,4.40
2023-02-13T07:47:23.778Z,4.50
2023-02-13T07:49:54.815Z,4.60
2023-02-13T07:52:22.909Z,4.70
2023-02-13T07:54:51.445Z,4.80
2023-02-13T07:57:19.561Z,4.90
2023-02-13T07:59:47.616Z,5.00
2023-02-13T08:02:16.746Z,5.10
2023-02-13T08:04:46.522Z,5.30
2023-02-13T08:07:17.560Z,5.40
2023-02-13T08:10:04.117Z,5.50
2023-02-13T08:12:34.180Z,5.60
2023-02-13T08:15:02.383Z,5.70
2023-02-13T08:17:30.402Z,5.90
2023-02-13T08:19:58.777Z,6.00
2023-02-13T08:22:28.228Z,6.10
2023-02-13T08:24:56.340Z,6.30
2023-02-13T08:27:24.384Z,6.40
2023-02-13T08:29:52.562Z,6.50
2023-02-13T08:32:21.441Z,6.70
2023-02-13T08:34:49.570Z,6.80
2023-02-13T08:37:17.936Z,6.90
2023-02-13T08:39:47.352Z,7.10
2023-02-13T08:42:16.290Z,7.20
2023-02-13T08:44:44.644Z,7.30
2023-02-13T08:47:12.739Z,7.30
2023-02-13T08:49:40.847Z,7.40
2023-02-13T08:52:08.928Z,7.50
2023-02-13T08:54:37.075Z,7.50
2023-02-13T08:57:06.566Z,7.60
2023-02-13T08:59:34.573Z,7.60
2023-02-13T09:02:02.638Z,7.70
2023-02-13T09:04:30.966Z,7.70
2023-02-13T09:06:59.062Z,7.70
2023-02-13T09:09:27.125Z,7.80
2023-02-13T09:11:57.811Z,7.80
2023-02-13T09:14:27.230Z,7.90
2023-02-13T09:16:55.423Z,7.90
2023-02-13T09:19:23.689Z,8.00
2023-02-13T09:21:51.762Z,8.00
2023-02-13T09:24:19.806Z,8.10
2023-02-13T09:26:47.997Z,8.20
2023-02-13T09:29:16.290Z,8.20
2023-02-13T09:31:45.849Z,8.30
2023-02-13T09:34:13.935Z,8.40
2023-02-13T09:36:42.027Z,8.50
2023-02-13T09:39:10.930Z,8.60
2023-02-13T09:41:42.483Z,8.80
2023-02-13T09:44:33.800Z,8.90
2023-02-13T09:47:06.623Z,9.10
2023-02-13T09:49:41.320Z,9.30
2023-02-13T09:52:10.807Z,9.50
2023-02-13T09:54:38.863Z,9.70
2023-02-13T09:57:15.641Z,10.00
2023-02-13T09:59:58.140Z,10.20
2023-02-13T10:02:49.434Z,10.50
2023-02-13T10:05:37.036Z,10.80
2023-02-13T10:08:13.446Z,11.00
2023-02-13T10:10:51.177Z,11.20
2023-02-13T10:13:31.240Z,11.40
2023-02-13T10:16:07.564Z,11.60
2023-02-13T10:18:49.175Z,11.80
2023-02-13T10:21:22.835Z,12.00
2023-02-13T10:23:56.062Z,12.20
2023-02-13T10:26:42.439Z,12.40
2023-02-13T10:29:34.103Z,12.70
2023-02-13T10:32:07.186Z,12.90
2023-02-13T10:34:41.505Z,13.30
2023-02-13T10:37:15.790Z,13.50
2023-02-13T10:39:46.328Z,13.70
2023-02-13T10:42:23.845Z,14.00
2023-02-13T10:45:03.390Z,14.10
2023-02-13T10:47:43.067Z,14.30
2023-02-13T10:50:23.888Z,14.40
2023-02-13T10:52:58.277Z,14.40
2023-02-13T10:55:54.220Z,14.50
2023-02-13T10:58:27.478Z,14.60
2023-02-13T11:00:59.848Z,14.70
2023-02-13T11:03:29.655Z,14.90
2023-02-13T11:06:02.322Z,15.00
2023-02-13T11:08:34.745Z,15.10
2023-02-13T11:11:03.004Z,15.20
2023-02-13T11:13:31.802Z,15.40
2023-02-13T11:16:03.803Z,15.50
2023-02-13T11:18:34.971Z,15.60
2023-02-13T11:21:09.845Z,15.70
2023-02-13T11:23:45.121Z,15.60
2023-02-13T11:26:16.558Z,15.60
2023-02-13T11:28:51.913Z,15.80
2023-02-13T11:31:29.836Z,15.80
2023-02-13T11:33:59.403Z,15.80
2023-02-13T11:36:31.122Z,15.80
2023-02-13T11:39:00.933Z,15.90
2023-02-13T11:41:31.116Z,16.00
2023-02-13T11:44:02.350Z,16.10
2023-02-13T11:46:43.977Z,16.20
2023-02-13T11:49:20.073Z,16.30
2023-02-13T11:51:51.200Z,16.40
2023-02-13T11:54:25.546Z,16.60
2023-02-13T11:57:10.868Z,16.80
2023-02-13T11:59:42.432Z,17.00
2023-02-13T12:02:17.659Z,17.30
2023-02-13T12:04:46.282Z,17.50
2023-02-13T12:07:20.363Z,17.60
2023-02-13T12:09:52.376Z,17.90
2023-02-13T12:12:27.147Z,18.20
2023-02-13T12:14:56.782Z,18.80
2023-02-13T12:20:01.212Z,21.20
2023-02-13T12:22:43.403Z,21.10
2023-02-13T12:28:19.218Z,23.90
2023-02-13T12:31:15.467Z,24.10
2023-02-13T12:34:26.542Z,25.80
2023-02-13T12:37:07.799Z,25.80
2023-02-13T12:39:40.265Z,26.40
2023-02-13T12:42:32.731Z,27.20
2023-02-13T12:45:16.923Z,27.50
2023-02-13T12:48:01.947Z,28.00
2023-02-13T12:50:38.526Z,28.40
2023-02-13T12:53:23.869Z,28.70
2023-02-13T12:58:44.769Z,28.80
2023-02-13T13:01:24.139Z,29.00
2023-02-13T13:04:02.541Z,29.40
2023-02-13T13:06:44.873Z,29.40
2023-02-13T13:09:40.709Z,29.70
2023-02-13T13:12:21.175Z,29.90
2023-02-13T13:14:55.479Z,30.10
2023-02-13T13:17:38.872Z,30.10
2023-02-13T13:20:36.464Z,30.20
2023-02-13T13:23:09.814Z,30.20
2023-02-13T13:25:46.337Z,30.10
2023-02-13T13:28:22.055Z,30.00
2023-02-13T13:30:50.874Z,29.90
2023-02-13T13:33:20.937Z,29.70
2023-02-13T13:35:56.672Z,29.50
2023-02-13T13:38:31.928Z,29.10
2023-02-13T13:41:07.089Z,28.50
2023-02-13T13:43:45.114Z,27.70
2023-02-13T13:46:19.716Z,27.00
2023-02-13T13:49:07.214Z,26.20
2023-02-13T13:51:35.301Z,25.40
2023-02-13T13:54:36.855Z,24.60
2023-02-13T13:57:12.774Z,23.80
2023-02-13T14:00:28.696Z,23.20
2023-02-13T14:03:26.219Z,22.70
2023-02-13T14:06:04.669Z,22.10
2023-02-13T14:09:29.282Z,21.80
2023-02-13T14:14:53.862Z,21.00
2023-02-13T14:17:56.624Z,20.70
2023-02-13T14:20:37.537Z,20.40
2023-02-13T14:23:35.788Z,20.20
2023-02-13T14:26:20.060Z,19.90
2023-02-13T14:29:03.881Z,19.60
2023-02-13T14:31:35.529Z,19.40
2023-02-13T14:34:06.496Z,19.30
2023-02-13T14:36:37.861Z,19.30
2023-02-13T14:39:17.482Z,19.20
2023-02-13T14:41:57.698Z,19.10
2023-02-13T14:44:31.494Z,19.00
2023-02-13T14:47:01.208Z,18.80
2023-02-13T14:49:31.606Z,18.60
2023-02-13T14:52:04.127Z,18.40
2023-02-13T14:57:10.124Z,18.20
2023-02-13T14:59:44.215Z,18.10
2023-02-13T15:02:22.167Z,18.20
2023-02-13T15:04:55.030Z,18.30
2023-02-13T15:07:28.899Z,18.50
2023-02-13T15:10:01.320Z,18.70
2023-02-13T15:12:32.176Z,18.70
2023-02-13T15:15:02.385Z,18.70
2023-02-13T15:17:32.844Z,18.60
2023-02-13T15:20:09.832Z,18.40
2023-02-13T15:22:42.714Z,18.30
2023-02-13T15:25:24.331Z,18.30
2023-02-13T15:27:55.258Z,18.50
2023-02-13T15:30:26.286Z,18.90
2023-02-13T15:32:58.850Z,19.50
2023-02-13T15:35:29.315Z,19.90
2023-02-13T15:37:59.285Z,19.80
2023-02-13T15:40:29.637Z,19.50
2023-02-13T15:42:58.661Z,19.00
2023-02-13T15:45:28.898Z,18.40
2023-02-13T15:47:59.075Z,18.00
2023-02-13T15:50:32.582Z,17.50
2023-02-13T15:53:05.801Z,17.10
2023-02-13T15:58:05.282Z,16.40
2023-02-13T16:00:36.447Z,16.10
2023-02-13T16:03:07.946Z,15.80
2023-02-13T16:05:41.507Z,15.60
2023-02-13T16:08:35.359Z,15.40
2023-02-13T16:11:26.062Z,15.10
2023-02-13T16:14:03.628Z,14.90
2023-02-13T16:16:35.850Z,14.70
2023-02-13T16:19:21.227Z,14.40
2023-02-13T16:22:13.242Z,14.30
2023-02-13T16:24:53.977Z,14.10
2023-02-13T16:27:38.705Z,13.90
2023-02-13T16:30:24.414Z,13.70
2023-02-13T16:33:26.106Z,13.60
2023-02-13T16:36:28.768Z,13.40
2023-02-13T16:39:15.872Z,13.20
2023-02-13T16:41:49.548Z,13.00
2023-02-13T16:44:36.756Z,12.90
2023-02-13T16:47:39.031Z,12.70
2023-02-13T16:50:30.597Z,12.60
2023-02-13T16:53:17.774Z,12.40
2023-02-13T16:56:03.350Z,12.30
2023-02-13T16:58:39.582Z,12.10
2023-02-13T17:01:07.840Z,12.00
2023-02-13T17:03:35.892Z,11.90
2023-02-13T17:06:04.659Z,11.80
2023-02-13T17:08:33.039Z,11.70
2023-02-13T17:11:06.077Z,11.50
2023-02-13T17:13:35.954Z,11.40
2023-02-13T17:16:04.098Z,11.40
2023-02-13T17:18:32.170Z,11.30
2023-02-13T17:21:01.355Z,11.20
2023-02-13T17:23:29.662Z,11.10
2023-02-13T17:25:58.493Z,11.00
2023-02-13T17:28:30.261Z,11.00
2023-02-13T17:31:01.681Z,10.90
2023-02-13T17:33:31.585Z,10.90
2023-02-13T17:35:59.648Z,10.80
2023-02-13T17:38:27.796Z,10.70
2023-02-13T17:40:56.291Z,10.60
2023-02-13T17:43:25.333Z,10.60
2023-02-13T17:45:53.429Z,10.50
2023-02-13T17:48:24.033Z,10.50
2023-02-13T17:50:52.654Z,10.40
2023-02-13T17:53:24.950Z,10.30
2023-02-13T17:55:53.326Z,10.30
2023-02-13T17:58:21.392Z,10.30
2023-02-13T18:00:49.672Z,10.20
2023-02-13T18:03:17.737Z,10.10
2023-02-13T18:05:49.099Z,10.10
2023-02-13T18:08:17.985Z,10.00
2023-02-13T18:10:46.098Z,10.00
2023-02-13T18:13:14.506Z,9.90
2023-02-13T18:15:44.698Z,9.90
2023-02-13T18:18:15.147Z,9.80
2023-02-13T18:20:43.402Z,9.70
2023-02-13T18:23:13.967Z,9.70
2023-02-13T18:25:42.168Z,9.60
2023-02-13T18:28:10.182Z,9.50
2023-02-13T18:30:38.291Z,9.50
2023-02-13T18:35:36.567Z,9.40
2023-02-13T18:38:04.675Z,9.40
2023-02-13T18:40:34.167Z,9.30
2023-02-13T18:43:02.219Z,9.30
2023-02-13T18:45:30.747Z,9.20
2023-02-13T18:47:58.775Z,9.20
2023-02-13T18:50:26.882Z,9.20
2023-02-13T18:52:55.097Z,9.10
2023-02-13T18:55:23.257Z,9.10
2023-02-13T18:57:54.579Z,9.00
2023-02-13T19:00:23.581Z,8.90
2023-02-13T19:02:51.741Z,8.90
2023-02-13T19:05:20.343Z,8.80
2023-02-13T19:07:48.421Z,8.80
2023-02-13T19:10:16.639Z,8.70
2023-02-13T19:12:44.690Z,8.70
2023-02-13T19:15:14.200Z,8.60
2023-02-13T19:17:42.277Z,8.60
2023-02-13T19:20:11.191Z,8.50
2023-02-13T19:22:39.346Z,8.50
2023-02-13T19:25:07.842Z,8.40
2023-02-13T19:27:38.580Z,8.40
2023-02-13T19:30:09.511Z,8.30
2023-02-13T19:32:39.082Z,8.30
2023-02-13T19:35:07.853Z,8.20
2023-02-13T19:37:43.712Z,8.20
2023-02-13T19:40:14.235Z,8.10
2023-02-13T19:42:42.274Z,8.10
2023-02-13T19:45:11.395Z,8.10
2023-02-13T19:47:40.807Z,8.00
2023-02-13T19:50:09.800Z,8.00
2023-02-13T19:52:38.068Z,7.90
2023-02-13T19:55:06.623Z,7.90
2023-02-13T19:57:34.903Z,7.90
2023-02-13T20:00:04.705Z,7.80
2023-02-13T20:02:32.771Z,7.80
2023-02-13T20:05:06.959Z,7.70
2023-02-13T20:07:35.066Z,7.70
2023-02-13T20:10:03.218Z,7.60
2023-02-13T20:12:31.259Z,7.60
2023-02-13T20:14:59.361Z,7.50
2023-02-13T20:17:27.425Z,7.50
2023-02-13T20:19:55.904Z,7.50
2023-02-13T20:22:25.338Z,7.40
2023-02-13T20:24:53.460Z,7.40
2023-02-13T20:27:21.581Z,7.40
2023-02-13T20:29:50.219Z,7.30
2023-02-13T20:32:19.495Z,7.30
2023-02-13T20:34:59.647Z,7.30
2023-02-13T20:37:29.371Z,7.30
2023-02-13T20:39:57.416Z,7.20
2023-02-13T20:42:25.773Z,7.20
2023-02-13T20:44:53.804Z,7.20
2023-02-13T20:47:21.906Z,7.20
2023-02-13T20:49:49.929Z,7.20
2023-02-13T20:52:18.022Z,7.20
2023-02-13T20:54:47.784Z,7.10
2023-02-13T20:57:16.047Z,7.20
2023-02-13T20:59:44.827Z,7.10
2023-02-13T21:02:13.622Z,7.10
2023-02-13T21:04:41.711Z,7.10
2023-02-13T21:07:10.147Z,7.10
2023-02-13T21:09:38.321Z,7.10
2023-02-13T21:12:08.034Z,7.00
2023-02-13T21:14:36.247Z,7.00
2023-02-13T21:17:04.406Z,7.00
2023-02-13T21:19:32.444Z,7.00
2023-02-13T21:22:11.156Z,7.00
2023-02-13T21:24:41.395Z,6.90
2023-02-13T21:27:11.739Z,6.90
2023-02-13T21:29:40.030Z,6.90
2023-02-13T21:32:08.136Z,6.80
2023-02-13T21:34:36.298Z,6.80
2023-02-13T21:37:04.374Z,6.80
2023-02-13T21:39:32.457Z,6.80
2023-02-13T21:42:00.669Z,6.80
2023-02-13T21:44:30.084Z,6.80
2023-02-13T21:46:58.181Z,6.80
2023-02-13T21:49:26.363Z,6.80
2023-02-13T21:51:54.404Z,6.80
2023-02-13T21:54:22.477Z,6.70
2023-02-13T21:56:50.579Z,6.70
2023-02-13T21:59:18.862Z,6.70
2023-02-13T22:01:51.148Z,6.60
2023-02-13T22:04:19.626Z,6.60
2023-02-13T22:06:50.940Z,6.60
2023-02-13T22:09:20.477Z,6.60
2023-02-13T22:11:50.445Z,6.50
2023-02-13T22:14:19.777Z,6.50
2023-02-13T22:16:51.948Z,6.50
2023-02-13T22:19:20.580Z,6.40
2023-02-13T22:21:48.852Z,6.40
2023-02-13T22:24:17.020Z,6.40
2023-02-13T22:26:46.272Z,6.40
2023-02-13T22:29:16.326Z,6.30
2023-02-13T22:31:44.771Z,6.30
2023-02-13T22:34:14.822Z,6.30
2023-02-13T22:36:43.072Z,6.30
2023-02-13T22:39:12.592Z,6.20
2023-02-13T22:41:41.090Z,6.20
2023-02-13T22:44:09.179Z,6.20
2023-02-13T22:46:37.287Z,6.10
2023-02-13T22:49:05.430Z,6.10
2023-02-13T22:51:36.763Z,6.10
2023-02-13T22:54:05.237Z,6.00
2023-02-13T22:56:34.127Z,6.00
2023-02-13T22:59:02.324Z,6.00
2023-02-13T23:01:30.902Z,6.00
2023-02-13T23:03:59.248Z,6.00
2023-02-13T23:06:28.530Z,5.90
2023-02-13T23:08:58.394Z,5.90
2023-02-13T23:11:45.831Z,5.90
2023-02-13T23:14:14.645Z,5.80
2023-02-13T23:17:01.154Z,5.80
2023-02-13T23:19:30.651Z,5.80
2023-02-13T23:21:58.849Z,5.70
2023-02-13T23:24:28.836Z,5.70
2023-02-13T23:26:56.940Z,5.70
2023-02-13T23:29:25.098Z,5.70
2023-02-13T23:31:53.404Z,5.70
2023-02-13T23:34:21.568Z,5.60
2023-02-13T23:36:49.821Z,5.60
2023-02-13T23:39:17.896Z,5.60
2023-02-13T23:41:47.364Z,5.60
2023-02-13T23:44:15.407Z,5.50
2023-02-13T23:46:43.504Z,5.50
2023-02-13T23:49:11.636Z,5.50
2023-02-13T23:51:39.774Z,5.50
2023-02-13T23:54:07.816Z,5.50
2023-02-13T23:56:35.900Z,5.50
2023-02-13T23:59:05.295Z,5.50
